createdAt,value
2017-12-02T00:02:25.302Z,42.10
2017-12-02T00:04:53.463Z,39.33
2017-12-02T00:07:21.767Z,32.33
2017-12-02T00:09:51.051Z,41.95
2017-12-02T00:12:19.254Z,35.53
2017-12-02T00:14:47.644Z,41.28
2017-12-02T00:17:15.788Z,35.60
2017-12-02T00:19:44.845Z,38.50
2017-12-02T00:22:13.899Z,36.67
2017-12-02T00:24:42.052Z,42.50
2017-12-02T00:27:10.230Z,36.65
2017-12-02T00:29:38.432Z,40.50
2017-12-02T00:32:06.891Z,40.58
2017-12-02T00:34:35.120Z,40.15
2017-12-02T00:37:03.331Z,40.10
2017-12-02T00:39:31.518Z,48.83
2017-12-02T00:41:59.682Z,45.67
2017-12-02T00:44:27.890Z,47.30
2017-12-02T00:46:56.045Z,45.70
2017-12-02T00:49:24.209Z,40.45
2017-12-02T00:51:53.270Z,40.25
2017-12-02T00:54:21.438Z,43.63
2017-12-02T00:56:49.584Z,39.80
2017-12-02T00:59:18.522Z,39.30
2017-12-02T01:01:53.706Z,46.60
2017-12-02T01:04:27.874Z,36.90
2017-12-02T01:06:56.016Z,41.10
2017-12-02T01:09:25.225Z,39.63
2017-12-02T01:11:53.380Z,38.17
2017-12-02T01:14:22.339Z,48.42
2017-12-02T01:16:50.493Z,36.47
2017-12-02T01:19:18.657Z,43.20
2017-12-02T01:21:48.900Z,40.22
2017-12-02T01:24:17.073Z,42.47
2017-12-02T01:26:45.217Z,40.97
2017-12-02T01:29:13.388Z,41.90
2017-12-02T01:31:49.008Z,41.67
2017-12-02T01:34:17.932Z,41.85
2017-12-02T01:36:52.520Z,44.63
2017-12-02T01:39:20.678Z,46.85
2017-12-02T01:41:48.858Z,38.35
2017-12-02T01:44:17.035Z,37.92
2017-12-02T01:46:45.201Z,39.88
2017-12-02T01:49:13.349Z,42.40
2017-12-02T01:51:41.509Z,36.33
2017-12-02T01:54:09.663Z,39.65
2017-12-02T01:56:37.841Z,41.40
2017-12-02T01:59:06.118Z,46.83
2017-12-02T02:01:34.432Z,43.58
2017-12-02T02:04:02.596Z,42.22
2017-12-02T02:06:30.767Z,39.72
2017-12-02T02:08:58.959Z,45.65
2017-12-02T02:11:34.569Z,41.40
2017-12-02T02:14:03.781Z,41.03
2017-12-02T02:16:31.968Z,40.67
2017-12-02T02:19:00.141Z,39.47
2017-12-02T02:21:29.105Z,44.58
2017-12-02T02:23:57.269Z,43.95
2017-12-02T02:26:25.481Z,42.97
2017-12-02T02:28:53.878Z,38.88
2017-12-02T02:31:22.127Z,42.78
2017-12-02T02:33:50.309Z,42.47
2017-12-02T02:36:18.514Z,43.38
2017-12-02T02:38:46.678Z,46.30
2017-12-02T02:41:17.887Z,40.45
2017-12-02T02:43:46.190Z,43.40
2017-12-02T02:46:14.355Z,41.03
2017-12-02T02:48:42.525Z,35.00
2017-12-02T02:51:15.909Z,37.13
2017-12-02T02:53:44.077Z,45.00
2017-12-02T02:56:12.266Z,41.58
2017-12-02T02:58:40.446Z,46.78
2017-12-02T03:01:14.606Z,39.80
2017-12-02T03:03:43.548Z,39.58
2017-12-02T03:06:11.730Z,39.47
2017-12-02T03:08:39.900Z,38.30
2017-12-02T03:11:08.068Z,39.80
2017-12-02T03:13:36.244Z,43.08
2017-12-02T03:16:05.088Z,36.40
2017-12-02T03:18:33.256Z,33.72
2017-12-02T03:21:01.569Z,40.78
2017-12-02T03:23:29.740Z,36.13
2017-12-02T03:25:57.899Z,37.47
2017-12-02T03:28:26.502Z,36.47
2017-12-02T03:31:01.308Z,50.00
2017-12-02T03:33:30.244Z,37.60
2017-12-02T03:36:06.859Z,36.13
2017-12-02T03:38:35.030Z,36.30
2017-12-02T03:41:10.595Z,32.72
2017-12-02T03:43:42.875Z,34.13
2017-12-02T03:46:11.042Z,35.13
2017-12-02T03:48:40.045Z,37.33
2017-12-02T03:51:10.193Z,38.65
2017-12-02T03:53:38.342Z,38.63
2017-12-02T03:56:06.520Z,42.75
2017-12-02T03:58:34.684Z,42.45
2017-12-02T04:01:02.886Z,34.63
2017-12-02T04:03:31.058Z,46.28
2017-12-02T04:05:59.216Z,40.50
2017-12-02T04:08:27.398Z,36.40
2017-12-02T04:10:57.410Z,35.97
2017-12-02T04:13:25.572Z,38.58
2017-12-02T04:15:53.958Z,37.20
2017-12-02T04:18:22.132Z,31.60
2017-12-02T04:20:50.333Z,37.65
2017-12-02T04:23:19.280Z,34.85
2017-12-02T04:25:48.243Z,33.67
2017-12-02T04:28:16.431Z,38.55
2017-12-02T04:30:44.674Z,37.55
2017-12-02T04:33:12.845Z,33.55
2017-12-02T04:35:41.025Z,34.00
2017-12-02T04:38:09.182Z,38.67
2017-12-02T04:40:38.602Z,33.88
2017-12-02T04:43:07.523Z,35.70
2017-12-02T04:45:35.698Z,40.08
2017-12-02T04:48:03.874Z,36.47
2017-12-02T04:50:32.096Z,36.65
2017-12-02T04:53:00.271Z,37.00
2017-12-02T04:55:28.452Z,32.80
2017-12-02T04:57:56.674Z,32.25
2017-12-02T05:00:28.071Z,31.80
2017-12-02T05:02:56.245Z,32.47
2017-12-02T05:05:26.690Z,33.33
2017-12-02T05:07:55.692Z,31.42
2017-12-02T05:10:27.324Z,31.77
2017-12-02T05:12:57.470Z,39.80
2017-12-02T05:15:25.643Z,31.87
2017-12-02T05:17:54.098Z,36.90
2017-12-02T05:20:25.742Z,39.80
2017-12-02T05:22:54.022Z,37.33
2017-12-02T05:25:22.203Z,33.70
2017-12-02T05:27:50.381Z,39.47
2017-12-02T05:30:19.667Z,38.15
2017-12-02T05:32:47.871Z,34.67
2017-12-02T05:35:16.029Z,38.00
2017-12-02T05:37:44.197Z,42.10
2017-12-02T05:40:12.473Z,34.67
2017-12-02T05:42:40.645Z,45.08
2017-12-02T05:45:08.810Z,28.98
2017-12-02T05:47:37.014Z,36.80
2017-12-02T05:50:07.235Z,39.78
2017-12-02T05:52:35.419Z,36.47
2017-12-02T05:55:03.656Z,33.67
2017-12-02T05:57:31.828Z,38.55
2017-12-02T06:00:01.954Z,37.25
2017-12-02T06:02:30.133Z,35.60
2017-12-02T06:04:59.064Z,36.90
2017-12-02T06:07:27.254Z,33.63
2017-12-02T06:09:55.518Z,33.20
2017-12-02T06:12:23.675Z,33.00
2017-12-02T06:14:51.842Z,41.53
2017-12-02T06:17:20.849Z,36.63
2017-12-02T06:19:52.874Z,35.13
2017-12-02T06:22:21.176Z,32.83
2017-12-02T06:24:49.330Z,32.55
2017-12-02T06:27:17.499Z,40.67
2017-12-02T06:29:45.773Z,36.53
2017-12-02T06:32:14.886Z,37.50
2017-12-02T06:34:43.039Z,33.63
2017-12-02T06:37:11.537Z,35.03
2017-12-02T06:39:40.735Z,40.70
2017-12-02T06:42:08.926Z,40.00
2017-12-02T06:44:37.093Z,36.13
2017-12-02T06:47:05.267Z,39.42
2017-12-02T06:49:33.444Z,35.28
2017-12-02T06:52:01.607Z,35.80
2017-12-02T06:54:30.561Z,36.53
2017-12-02T06:56:59.502Z,38.70
2017-12-02T06:59:27.672Z,37.50
2017-12-02T07:01:55.847Z,44.10
2017-12-02T07:04:24.009Z,40.75
2017-12-02T07:06:52.177Z,44.80
2017-12-02T07:09:20.370Z,41.33
2017-12-02T07:11:48.518Z,42.65
2017-12-02T07:14:16.722Z,41.05
2017-12-02T07:16:44.980Z,45.65
2017-12-02T07:19:13.158Z,43.65
2017-12-02T07:21:43.272Z,41.63
2017-12-02T07:24:11.456Z,48.67
2017-12-02T07:26:39.641Z,46.40
2017-12-02T07:29:07.796Z,41.55
2017-12-02T07:31:35.987Z,40.67
2017-12-02T07:34:04.146Z,40.42
2017-12-02T07:36:32.338Z,39.88
2017-12-02T07:39:00.526Z,33.10
2017-12-02T07:41:28.674Z,36.08
2017-12-02T07:43:56.858Z,35.90
2017-12-02T07:46:25.030Z,32.25
2017-12-02T07:48:53.203Z,30.77
2017-12-02T07:51:24.647Z,28.38
2017-12-02T07:53:52.806Z,33.90
2017-12-02T07:56:24.255Z,32.28
2017-12-02T07:58:52.419Z,27.00
2017-12-02T08:01:25.352Z,34.55
2017-12-02T08:03:53.639Z,32.33
2017-12-02T08:06:21.799Z,33.30
2017-12-02T08:08:49.989Z,35.75
2017-12-02T08:11:20.262Z,30.98
2017-12-02T08:13:48.463Z,27.80
2017-12-02T08:16:16.634Z,27.75
2017-12-02T08:18:44.800Z,31.75
2017-12-02T08:21:12.985Z,30.05
2017-12-02T08:23:41.162Z,30.73
2017-12-02T08:26:09.317Z,29.45
2017-12-02T08:28:37.500Z,30.62
2017-12-02T08:31:06.494Z,32.33
2017-12-02T08:33:34.662Z,32.00
2017-12-02T08:36:02.825Z,29.95
2017-12-02T08:38:30.994Z,29.52
2017-12-02T08:40:59.169Z,34.67
2017-12-02T08:43:27.357Z,32.55
2017-12-02T08:45:55.515Z,32.28
2017-12-02T08:48:23.655Z,32.55
2017-12-02T08:50:51.884Z,34.03
2017-12-02T08:53:20.060Z,25.45
2017-12-02T08:55:48.238Z,30.20
2017-12-02T08:58:16.444Z,35.55
2017-12-02T09:00:50.583Z,32.53
2017-12-02T09:03:19.511Z,29.75
2017-12-02T09:05:54.718Z,31.17
2017-12-02T09:08:22.898Z,31.85
2017-12-02T09:10:51.213Z,31.15
2017-12-02T09:13:19.373Z,31.33
2017-12-02T09:15:47.614Z,32.97
2017-12-02T09:18:15.778Z,30.70
2017-12-02T09:20:44.185Z,32.03
2017-12-02T09:23:13.110Z,33.63
2017-12-02T09:25:41.254Z,35.90
2017-12-02T09:28:09.687Z,32.78
2017-12-02T09:30:37.857Z,30.83
2017-12-02T09:33:06.054Z,32.47
2017-12-02T09:35:34.209Z,32.60
2017-12-02T09:38:02.389Z,29.33
2017-12-02T09:40:32.712Z,32.72
2017-12-02T09:43:00.877Z,35.85
2017-12-02T09:45:30.242Z,31.15
2017-12-02T09:47:58.432Z,31.85
2017-12-02T09:50:30.391Z,32.40
2017-12-02T09:52:59.688Z,34.00
2017-12-02T09:55:27.848Z,28.65
2017-12-02T09:57:56.700Z,36.55
2017-12-02T10:00:30.750Z,35.50
2017-12-02T10:02:58.936Z,31.45
2017-12-02T10:05:34.235Z,26.95
2017-12-02T10:08:02.425Z,25.00
2017-12-02T10:10:30.728Z,25.50
2017-12-02T10:12:58.898Z,26.50
2017-12-02T10:15:27.057Z,30.30
2017-12-02T10:17:56.113Z,27.08
2017-12-02T10:20:24.279Z,30.52
2017-12-02T10:22:52.453Z,26.35
2017-12-02T10:25:20.616Z,26.98
2017-12-02T10:27:48.832Z,26.75
2017-12-02T10:30:17.129Z,28.35
2017-12-02T10:32:45.303Z,28.25
2017-12-02T10:35:13.477Z,20.35
2017-12-02T10:37:42.596Z,31.08
2017-12-02T10:40:10.844Z,24.45
2017-12-02T10:42:39.076Z,24.27
2017-12-02T10:45:07.254Z,23.27
2017-12-02T10:47:35.441Z,27.27
2017-12-02T10:50:03.621Z,22.58
2017-12-02T10:52:32.606Z,28.25
2017-12-02T10:55:01.602Z,25.83
2017-12-02T10:57:29.820Z,25.50
2017-12-02T10:59:58.898Z,19.37
2017-12-02T12:09:08.006Z,23.70
2017-12-02T12:11:36.178Z,28.48
2017-12-02T12:14:05.109Z,26.98
2017-12-02T12:16:33.492Z,26.27
2017-12-02T12:19:01.714Z,24.48
2017-12-02T12:21:29.975Z,22.80
2017-12-02T12:23:58.157Z,24.92
2017-12-02T12:26:26.334Z,24.63
2017-12-02T12:28:54.594Z,25.30
2017-12-02T12:31:22.769Z,27.48
2017-12-02T12:33:50.922Z,25.45
2017-12-02T12:36:20.122Z,21.37
2017-12-02T12:38:49.216Z,24.55
2017-12-02T12:41:17.673Z,25.80
2017-12-02T12:43:46.378Z,26.05
2017-12-02T12:46:16.191Z,23.35
2017-12-02T12:48:47.396Z,26.30
2017-12-02T12:51:16.140Z,22.48
2017-12-02T12:53:44.305Z,23.75
2017-12-02T12:56:13.245Z,25.70
2017-12-02T12:58:42.252Z,28.85
2017-12-02T13:01:10.669Z,22.45
2017-12-02T13:03:41.267Z,34.35
2017-12-02T13:06:10.435Z,27.23
2017-12-02T13:08:40.005Z,21.17
2017-12-02T13:11:08.315Z,25.45
2017-12-02T13:13:37.427Z,22.73
2017-12-02T13:16:05.985Z,27.30
2017-12-02T13:18:35.206Z,26.80
2017-12-02T13:21:03.587Z,26.95
2017-12-02T13:23:31.895Z,23.45
2017-12-02T13:26:01.698Z,24.48
2017-12-02T13:28:34.397Z,24.20
2017-12-02T13:31:03.776Z,25.92
2017-12-02T13:33:52.677Z,29.87
2017-12-02T13:36:23.506Z,30.87
2017-12-02T13:38:52.756Z,29.92
2017-12-02T13:41:22.887Z,29.60
2017-12-02T13:43:52.747Z,26.70
2017-12-02T13:46:21.074Z,24.90
2017-12-02T13:48:57.191Z,26.52
2017-12-02T13:51:28.616Z,53.20
2017-12-02T13:53:57.614Z,31.80
2017-12-02T13:56:29.390Z,28.00
2017-12-02T13:58:58.055Z,22.80
2017-12-02T14:01:26.344Z,32.70
2017-12-02T14:03:55.343Z,24.77
2017-12-02T14:06:24.182Z,30.50
2017-12-02T14:08:56.160Z,23.12
2017-12-02T14:11:24.660Z,25.70
2017-12-02T14:13:55.984Z,21.67
2017-12-02T14:16:24.506Z,24.60
2017-12-02T14:19:02.781Z,22.48
2017-12-02T14:21:30.981Z,24.35
2017-12-02T14:23:59.629Z,23.70
2017-12-02T14:26:28.859Z,28.55
2017-12-02T14:28:58.877Z,23.35
2017-12-02T14:31:27.152Z,26.08
2017-12-02T14:33:55.368Z,26.67
2017-12-02T14:36:23.581Z,26.55
2017-12-02T14:38:57.547Z,28.23
2017-12-02T14:41:26.115Z,22.70
2017-12-02T14:43:55.183Z,23.52
2017-12-02T14:46:25.465Z,28.10
2017-12-02T14:48:53.791Z,25.88
2017-12-02T14:51:21.909Z,23.75
2017-12-02T14:53:50.074Z,28.27
2017-12-02T14:56:18.229Z,27.40
2017-12-02T14:58:47.234Z,26.80
2017-12-02T15:01:15.405Z,26.83
2017-12-02T15:03:44.339Z,28.50
2017-12-02T15:06:12.542Z,23.50
2017-12-02T15:08:40.783Z,30.20
2017-12-02T15:11:09.196Z,31.92
2017-12-02T15:13:37.356Z,39.03
2017-12-02T15:16:05.593Z,36.40
2017-12-02T15:18:33.900Z,26.73
2017-12-02T15:21:02.297Z,27.60
2017-12-02T15:23:31.340Z,29.30
2017-12-02T15:25:59.510Z,27.20
2017-12-02T15:28:34.019Z,24.80
2017-12-02T15:31:02.940Z,20.88
2017-12-02T15:33:32.142Z,25.10
2017-12-02T15:36:01.184Z,20.90
2017-12-02T15:38:34.648Z,23.00
2017-12-02T15:41:02.906Z,29.60
2017-12-02T15:43:31.343Z,23.45
2017-12-02T15:46:00.040Z,24.60
2017-12-02T15:48:28.343Z,23.60
2017-12-02T15:50:56.519Z,25.55
2017-12-02T15:53:24.729Z,26.80
2017-12-02T15:55:52.959Z,23.35
2017-12-02T15:58:22.054Z,23.30
2017-12-02T16:00:50.329Z,36.22
2017-12-02T16:03:18.484Z,27.10
2017-12-02T16:05:46.655Z,25.58
2017-12-02T16:08:14.961Z,32.13
2017-12-02T16:10:43.108Z,32.38
2017-12-02T16:13:12.066Z,25.37
2017-12-02T16:15:40.756Z,28.50
2017-12-02T16:18:12.390Z,32.25
2017-12-02T16:20:40.600Z,27.02
2017-12-02T16:23:08.770Z,29.60
2017-12-02T16:25:36.925Z,32.05
2017-12-02T16:28:07.125Z,25.50
2017-12-02T16:30:35.282Z,23.80
2017-12-02T16:33:03.441Z,27.77
2017-12-02T16:35:31.616Z,29.67
2017-12-02T16:38:00.848Z,25.25
2017-12-02T16:40:30.042Z,26.70
2017-12-02T16:42:58.580Z,26.45
2017-12-02T16:45:26.752Z,26.62
2017-12-02T16:47:54.975Z,35.50
2017-12-02T16:50:23.157Z,40.12
2017-12-02T16:52:51.316Z,29.33
2017-12-02T16:55:20.271Z,25.50
2017-12-02T16:57:50.578Z,29.25
2017-12-02T17:00:18.791Z,28.70
2017-12-02T17:02:46.982Z,24.63
2017-12-02T17:05:15.149Z,27.80
2017-12-02T17:07:43.319Z,31.37
2017-12-02T17:10:12.416Z,27.30
2017-12-02T17:12:40.584Z,29.10
2017-12-02T17:15:09.775Z,30.70
2017-12-02T17:17:38.784Z,28.48
2017-12-02T17:20:08.110Z,30.45
2017-12-02T17:22:36.284Z,28.50
2017-12-02T17:25:04.510Z,51.50
2017-12-02T17:27:32.710Z,36.40
2017-12-02T17:30:01.379Z,46.25
2017-12-02T17:32:30.537Z,33.17
2017-12-02T17:34:58.696Z,30.95
2017-12-02T17:37:27.498Z,26.12
2017-12-02T17:39:55.666Z,31.25
2017-12-02T17:42:23.859Z,30.37
2017-12-02T17:44:52.654Z,30.10
2017-12-02T17:47:21.810Z,40.25
2017-12-02T17:49:49.959Z,30.48
2017-12-02T17:52:18.109Z,29.12
2017-12-02T17:54:46.269Z,32.78
2017-12-02T17:57:14.440Z,32.38
2017-12-02T17:59:44.089Z,31.67
2017-12-02T18:02:12.375Z,29.48
2017-12-02T18:04:40.512Z,29.60
2017-12-02T18:07:08.674Z,30.12
2017-12-02T18:09:37.609Z,36.05
2017-12-02T18:12:05.763Z,35.92
2017-12-02T18:14:33.984Z,31.30
2017-12-02T18:17:02.411Z,32.17
2017-12-02T18:19:50.785Z,34.28
2017-12-02T18:22:18.973Z,32.58
2017-12-02T18:24:47.163Z,31.42
2017-12-02T18:27:15.314Z,36.72
2017-12-02T18:29:43.609Z,34.88
2017-12-02T18:32:11.857Z,28.45
2017-12-02T18:34:40.027Z,30.15
2017-12-02T18:37:08.180Z,35.38
2017-12-02T18:39:38.340Z,31.77
2017-12-02T18:42:06.543Z,31.48
2017-12-02T18:44:34.800Z,31.90
2017-12-02T18:47:02.964Z,29.83
2017-12-02T18:49:35.157Z,31.65
2017-12-02T18:52:03.393Z,31.58
2017-12-02T18:54:31.574Z,30.12
2017-12-02T18:56:59.828Z,34.50
2017-12-02T18:59:30.874Z,33.38
2017-12-02T19:01:59.062Z,32.67
2017-12-02T19:04:27.238Z,28.42
2017-12-02T19:06:55.390Z,32.85
2017-12-02T19:09:24.688Z,31.85
2017-12-02T19:11:53.622Z,31.75
2017-12-02T19:14:21.803Z,34.40
2017-12-02T19:16:49.952Z,35.67
2017-12-02T19:19:19.182Z,37.80
2017-12-02T19:21:47.359Z,36.40
2017-12-02T19:24:15.520Z,38.33
2017-12-02T19:26:43.689Z,35.30
2017-12-02T19:29:14.755Z,35.33
2017-12-02T19:31:42.987Z,36.38
2017-12-02T19:34:11.164Z,36.92
2017-12-02T19:36:39.350Z,36.25
2017-12-02T19:39:07.653Z,37.05
2017-12-02T19:41:35.813Z,36.28
2017-12-02T19:44:04.031Z,29.65
2017-12-02T19:46:32.222Z,34.75
2017-12-02T19:49:00.564Z,42.25
2017-12-02T19:51:28.719Z,35.38
2017-12-02T19:53:56.930Z,39.75
2017-12-02T19:56:25.197Z,35.75
2017-12-02T19:58:53.451Z,34.53
2017-12-02T20:01:21.624Z,39.10
2017-12-02T20:03:49.781Z,32.67
2017-12-02T20:06:17.943Z,33.35
2017-12-02T20:08:47.761Z,34.47
2017-12-02T20:11:16.248Z,35.53
2017-12-02T20:13:44.438Z,39.33
2017-12-02T20:16:12.679Z,34.55
2017-12-02T20:18:40.882Z,31.95
2017-12-02T20:21:09.778Z,33.05
2017-12-02T20:23:37.955Z,29.83
2017-12-02T20:26:06.677Z,33.72
2017-12-02T20:28:37.679Z,38.72
2017-12-02T20:31:06.173Z,35.97
2017-12-02T20:33:34.403Z,36.47
2017-12-02T20:36:02.548Z,36.47
2017-12-02T20:38:31.771Z,33.38
2017-12-02T20:40:59.938Z,35.10
2017-12-02T20:43:28.926Z,32.90
2017-12-02T20:45:57.081Z,34.90
2017-12-02T20:48:25.312Z,27.80
2017-12-02T20:50:53.492Z,24.67
2017-12-02T20:53:21.640Z,32.50
2017-12-02T20:55:49.835Z,29.00
2017-12-02T20:58:25.446Z,27.17
2017-12-02T21:00:54.468Z,26.20
2017-12-02T21:03:22.743Z,29.05
2017-12-02T21:05:50.918Z,30.40
2017-12-02T21:08:21.181Z,54.78
2017-12-02T21:10:49.340Z,32.95
2017-12-02T21:13:17.501Z,24.95
2017-12-02T21:15:45.899Z,21.42
2017-12-02T21:18:20.086Z,24.15
2017-12-02T21:20:48.257Z,21.27
2017-12-02T21:23:16.644Z,28.48
2017-12-02T21:25:45.579Z,25.98
2017-12-02T21:28:13.749Z,26.08
2017-12-02T21:30:42.549Z,27.75
2017-12-02T21:33:10.722Z,24.08
2017-12-02T21:35:38.964Z,24.70
2017-12-02T21:38:11.142Z,27.35
2017-12-02T21:40:39.324Z,20.85
2017-12-02T21:43:07.473Z,22.60
2017-12-02T21:45:35.658Z,21.02
2017-12-02T21:48:03.825Z,18.87
2017-12-02T21:50:32.009Z,18.67
2017-12-02T21:53:00.166Z,20.37
2017-12-02T21:55:28.315Z,20.00
2017-12-02T21:57:56.506Z,19.80
2017-12-02T22:00:24.660Z,35.92
2017-12-02T22:02:52.837Z,35.45
2017-12-02T22:05:21.010Z,23.60
2017-12-02T22:07:53.495Z,22.45
2017-12-02T22:10:21.813Z,24.48
2017-12-02T22:12:51.174Z,23.73
2017-12-02T22:15:19.674Z,20.48
2017-12-02T22:17:47.838Z,20.17
2017-12-02T22:20:15.986Z,23.77
2017-12-02T22:22:44.144Z,16.98
2017-12-02T22:25:12.318Z,19.80
2017-12-02T22:27:40.497Z,16.55
2017-12-02T22:30:08.667Z,17.45
2017-12-02T22:32:36.851Z,19.30
2017-12-02T22:35:05.857Z,22.70
2017-12-02T22:37:34.054Z,21.12
2017-12-02T22:40:02.218Z,19.95
2017-12-02T22:42:30.462Z,21.17
2017-12-02T22:45:00.332Z,22.37
2017-12-02T22:47:30.528Z,23.73
2017-12-02T22:49:58.693Z,20.40
2017-12-02T22:52:26.912Z,19.17
2017-12-02T22:54:55.070Z,22.95
2017-12-02T22:57:23.247Z,19.25
2017-12-02T22:59:52.181Z,22.65
2017-12-02T23:02:20.374Z,21.70
2017-12-02T23:04:49.296Z,18.77
2017-12-02T23:07:17.504Z,16.58
2017-12-02T23:09:45.736Z,19.23
2017-12-02T23:12:13.899Z,20.90
2017-12-02T23:14:42.073Z,17.67
2017-12-02T23:17:10.384Z,22.60
2017-12-02T23:19:38.616Z,21.90
2017-12-02T23:22:07.568Z,20.00
2017-12-02T23:24:35.742Z,21.33
2017-12-02T23:27:05.425Z,20.58
2017-12-02T23:29:33.621Z,24.80
2017-12-02T23:32:01.797Z,23.17
2017-12-02T23:34:29.942Z,18.25
2017-12-02T23:36:58.113Z,19.20
2017-12-02T23:39:30.797Z,18.92
2017-12-02T23:41:59.664Z,22.08
2017-12-02T23:44:27.839Z,21.95
2017-12-02T23:46:57.820Z,23.58
2017-12-02T23:49:25.974Z,19.80
2017-12-02T23:51:54.149Z,20.00
2017-12-02T23:54:22.370Z,19.87
2017-12-02T23:56:51.066Z,19.37
2017-12-02T23:59:19.246Z,18.80
